createdAt,value
2018-03-26T00:03:25.100Z,3.90
2018-03-26T00:08:27.627Z,3.90
2018-03-26T00:13:30.162Z,3.80
2018-03-26T00:18:32.707Z,3.70
2018-03-26T00:23:35.229Z,3.70
2018-03-26T00:28:37.758Z,3.60
2018-03-26T00:33:40.306Z,3.60
2018-03-26T00:38:42.850Z,3.50
2018-03-26T00:43:46.150Z,3.30
2018-03-26T00:48:48.694Z,3.30
2018-03-26T00:53:51.225Z,3.30
2018-03-26T00:58:53.774Z,3.20
2018-03-26T01:03:56.307Z,3.20
2018-03-26T01:08:58.854Z,3.10
2018-03-26T01:14:02.256Z,3.00
2018-03-26T01:19:04.781Z,3.00
2018-03-26T01:24:07.301Z,2.90
2018-03-26T01:29:09.848Z,2.90
2018-03-26T01:34:12.477Z,2.80
2018-03-26T01:39:15.001Z,2.80
2018-03-26T01:44:17.533Z,2.70
2018-03-26T01:49:20.073Z,2.70
2018-03-26T01:54:22.618Z,2.60
2018-03-26T01:59:25.149Z,2.60
2018-03-26T02:04:28.461Z,2.50
2018-03-26T02:09:31.058Z,2.40
2018-03-26T02:14:33.586Z,2.40
2018-03-26T02:19:36.119Z,2.40
2018-03-26T02:24:38.754Z,2.30
2018-03-26T02:29:41.286Z,2.30
2018-03-26T02:34:43.818Z,2.20
2018-03-26T02:39:46.366Z,2.20
2018-03-26T02:44:49.675Z,2.10
2018-03-26T02:49:52.977Z,2.10
2018-03-26T02:54:55.516Z,2.10
2018-03-26T02:59:58.054Z,2.10
2018-03-26T03:05:00.602Z,2.00
2018-03-26T03:10:03.150Z,2.00
2018-03-26T03:15:05.696Z,1.90
2018-03-26T03:20:08.221Z,1.90
2018-03-26T03:25:10.790Z,1.90
2018-03-26T03:30:13.331Z,1.80
2018-03-26T03:35:15.874Z,1.80
2018-03-26T03:40:18.394Z,1.70
2018-03-26T03:45:20.930Z,1.70
2018-03-26T03:50:23.474Z,1.70
2018-03-26T03:55:26.004Z,1.60
2018-03-26T04:00:28.534Z,1.60
2018-03-26T04:05:31.096Z,1.60
2018-03-26T04:10:33.626Z,1.50
2018-03-26T04:15:36.166Z,1.50
2018-03-26T04:20:38.701Z,1.50
2018-03-26T04:25:41.225Z,1.40
2018-03-26T04:30:43.769Z,1.40
2018-03-26T04:35:46.297Z,1.40
2018-03-26T04:40:48.863Z,1.40
2018-03-26T04:45:51.398Z,1.30
2018-03-26T04:50:53.946Z,1.30
2018-03-26T04:55:56.544Z,1.30
2018-03-26T05:00:59.074Z,1.30
2018-03-26T05:06:01.617Z,1.30
2018-03-26T05:11:04.153Z,1.30
2018-03-26T05:16:06.703Z,1.30
2018-03-26T05:21:09.250Z,1.30
2018-03-26T05:26:11.785Z,1.30
2018-03-26T05:31:14.339Z,1.30
2018-03-26T05:36:17.637Z,1.40
2018-03-26T05:41:20.182Z,1.30
2018-03-26T05:46:22.702Z,1.40
2018-03-26T05:51:25.254Z,1.40
2018-03-26T05:56:27.793Z,1.50
2018-03-26T06:01:30.389Z,1.50
2018-03-26T06:06:32.947Z,1.50
2018-03-26T06:11:35.490Z,1.60
2018-03-26T06:25:39.286Z,1.70
2018-03-26T06:30:42.600Z,1.80
2018-03-26T06:35:45.888Z,1.90
2018-03-26T06:40:48.445Z,1.80
2018-03-26T06:45:51.009Z,1.90
2018-03-26T06:50:54.349Z,2.00
2018-03-26T06:55:56.882Z,2.00
2018-03-26T07:00:59.427Z,2.00
2018-03-26T07:06:02.242Z,2.10
2018-03-26T07:11:04.776Z,2.20
2018-03-26T07:16:07.412Z,2.20
2018-03-26T07:21:09.962Z,2.20
2018-03-26T07:26:12.485Z,2.30
2018-03-26T07:31:15.038Z,2.30
2018-03-26T07:36:17.573Z,2.40
2018-03-26T07:41:20.168Z,2.40
2018-03-26T07:46:22.686Z,2.50
2018-03-26T07:51:25.237Z,2.50
2018-03-26T07:56:27.767Z,2.60
2018-03-26T08:01:30.314Z,2.70
2018-03-26T08:06:32.860Z,2.70
2018-03-26T08:11:35.403Z,2.80
2018-03-26T08:16:37.945Z,2.90
2018-03-26T08:21:40.491Z,2.90
2018-03-26T08:26:43.033Z,3.00
2018-03-26T08:31:45.586Z,3.10
2018-03-26T08:36:48.165Z,3.10
2018-03-26T08:41:50.708Z,3.20
2018-03-26T08:46:53.246Z,3.30
2018-03-26T08:51:55.807Z,3.40
2018-03-26T08:56:59.128Z,3.50
2018-03-26T09:02:01.680Z,3.50
2018-03-26T09:07:04.214Z,3.60
2018-03-26T09:12:06.762Z,3.70
2018-03-26T09:17:09.316Z,3.80
2018-03-26T09:22:12.625Z,3.90
2018-03-26T09:27:15.938Z,4.00
2018-03-26T09:32:18.498Z,4.00
2018-03-26T09:37:21.139Z,4.10
2018-03-26T09:42:23.681Z,4.20
2018-03-26T09:47:26.227Z,4.30
2018-03-26T09:52:28.796Z,4.40
2018-03-26T09:57:31.362Z,4.40
2018-03-26T10:02:33.913Z,4.50
2018-03-26T10:07:36.469Z,4.70
2018-03-26T10:12:39.094Z,4.80
2018-03-26T10:17:41.662Z,4.90
2018-03-26T10:22:44.214Z,5.00
2018-03-26T10:27:46.769Z,5.10
2018-03-26T10:32:49.318Z,5.30
2018-03-26T10:37:51.869Z,5.40
2018-03-26T10:42:54.420Z,5.50
2018-03-26T10:47:57.465Z,5.70
2018-03-26T10:52:59.998Z,5.80
2018-03-26T10:58:02.550Z,6.00
2018-03-26T11:03:05.138Z,6.10
2018-03-26T11:08:07.654Z,6.30
2018-03-26T11:13:10.206Z,6.40
2018-03-26T11:18:12.747Z,6.60
2018-03-26T11:23:15.307Z,6.70
2018-03-26T11:28:17.850Z,6.80
2018-03-26T11:33:20.399Z,6.90
2018-03-26T11:38:22.944Z,7.10
2018-03-26T11:43:25.478Z,7.20
2018-03-26T11:48:28.039Z,7.30
2018-03-26T11:53:30.602Z,7.40
2018-03-26T11:58:33.142Z,7.50
2018-03-26T12:03:35.699Z,7.60
2018-03-26T12:08:38.240Z,7.70
2018-03-26T12:13:40.798Z,7.80
2018-03-26T12:18:43.356Z,7.90
2018-03-26T12:23:57.734Z,7.90
2018-03-26T12:29:12.014Z,8.00
2018-03-26T12:34:26.435Z,8.10
2018-03-26T12:39:28.993Z,8.10
2018-03-26T12:44:43.343Z,8.20
2018-03-26T12:49:45.905Z,8.30
2018-03-26T12:54:48.467Z,8.30
2018-03-26T12:59:51.002Z,8.40
2018-03-26T13:04:53.548Z,8.40
2018-03-26T13:09:56.106Z,8.50
2018-03-26T13:14:58.621Z,8.50
2018-03-26T13:20:01.175Z,8.50
2018-03-26T13:25:04.494Z,8.50
2018-03-26T13:30:07.063Z,8.50
2018-03-26T13:35:09.626Z,8.50
2018-03-26T13:40:12.183Z,8.50
2018-03-26T13:45:14.734Z,8.60
2018-03-26T13:50:17.298Z,8.60
2018-03-26T13:55:19.847Z,8.70
2018-03-26T14:00:22.405Z,8.70
2018-03-26T14:05:24.944Z,8.70
2018-03-26T14:10:39.364Z,8.80
2018-03-26T14:15:53.757Z,8.80
2018-03-26T14:20:56.309Z,8.80
2018-03-26T14:25:58.841Z,8.90
2018-03-26T14:31:01.378Z,8.90
2018-03-26T14:36:03.934Z,9.00
2018-03-26T14:41:06.509Z,9.00
2018-03-26T14:46:09.063Z,9.00
2018-03-26T14:51:11.620Z,9.00
2018-03-26T14:56:14.166Z,9.00
2018-03-26T15:01:16.725Z,9.10
2018-03-26T15:06:19.268Z,9.10
2018-03-26T15:11:21.829Z,9.00
2018-03-26T15:16:24.413Z,9.00
2018-03-26T15:21:26.959Z,9.00
2018-03-26T15:26:29.538Z,9.00
2018-03-26T15:31:32.838Z,9.00
2018-03-26T15:36:35.388Z,9.00
2018-03-26T15:41:37.970Z,9.00
2018-03-26T15:46:40.513Z,8.90
2018-03-26T15:51:43.084Z,8.90
2018-03-26T15:56:45.631Z,8.80
2018-03-26T16:01:48.182Z,8.80
2018-03-26T16:06:50.750Z,8.70
2018-03-26T16:11:53.514Z,8.70
2018-03-26T16:16:56.073Z,8.70
2018-03-26T16:21:58.632Z,8.60
2018-03-26T16:27:01.454Z,8.60
2018-03-26T16:32:04.022Z,8.60
2018-03-26T16:37:07.948Z,8.50
2018-03-26T16:42:35.175Z,8.40
2018-03-26T16:47:37.708Z,8.40
2018-03-26T16:52:40.316Z,8.40
2018-03-26T16:57:42.857Z,8.30
2018-03-26T17:02:45.426Z,8.30
2018-03-26T17:07:47.964Z,8.20
2018-03-26T17:12:50.522Z,8.20
2018-03-26T17:17:53.065Z,8.10
2018-03-26T17:22:56.133Z,8.10
2018-03-26T17:27:58.678Z,8.00
2018-03-26T17:33:01.377Z,7.90
2018-03-26T17:38:03.922Z,7.90
2018-03-26T17:43:06.472Z,7.90
2018-03-26T17:48:09.016Z,7.80
2018-03-26T17:53:11.561Z,7.80
2018-03-26T17:58:14.863Z,7.60
2018-03-26T18:03:17.443Z,7.60
2018-03-26T18:08:20.046Z,7.60
2018-03-26T18:13:22.590Z,7.50
2018-03-26T18:18:25.151Z,7.50
2018-03-26T18:23:27.741Z,7.40
2018-03-26T18:28:30.327Z,7.40
2018-03-26T18:33:32.877Z,7.30
2018-03-26T18:38:35.472Z,7.30
2018-03-26T18:43:38.020Z,7.20
2018-03-26T18:48:40.578Z,7.20
2018-03-26T18:53:43.135Z,7.10
2018-03-26T18:58:45.743Z,7.10
2018-03-26T19:03:48.514Z,7.00
2018-03-26T19:08:51.875Z,7.00
2018-03-26T19:13:54.427Z,6.90
2018-03-26T19:18:58.329Z,6.90
2018-03-26T19:24:00.894Z,6.90
2018-03-26T19:29:03.477Z,6.90
2018-03-26T19:34:06.018Z,6.80
2018-03-26T19:39:08.617Z,6.80
2018-03-26T19:44:11.173Z,6.70
2018-03-26T19:49:13.737Z,6.70
2018-03-26T19:54:17.053Z,6.60
2018-03-26T19:59:20.703Z,6.60
2018-03-26T20:04:23.271Z,6.60
2018-03-26T20:09:25.852Z,6.60
2018-03-26T20:14:28.403Z,6.50
2018-03-26T20:19:30.986Z,6.50
2018-03-26T20:24:33.554Z,6.50
2018-03-26T20:29:36.098Z,6.40
2018-03-26T20:34:38.641Z,6.40
2018-03-26T20:39:41.208Z,6.40
2018-03-26T20:44:43.764Z,6.30
2018-03-26T20:49:46.337Z,6.30
2018-03-26T20:54:48.908Z,6.30
2018-03-26T20:59:51.570Z,6.30
2018-03-26T21:04:54.111Z,6.20
2018-03-26T21:09:56.694Z,6.20
2018-03-26T21:14:59.470Z,6.20
2018-03-26T21:20:02.034Z,6.10
2018-03-26T21:25:04.643Z,6.10
2018-03-26T21:30:07.163Z,6.10
2018-03-26T21:35:09.714Z,6.10
2018-03-26T21:40:12.334Z,6.00
2018-03-26T21:45:14.881Z,6.00
2018-03-26T21:50:17.478Z,6.00
2018-03-26T21:55:20.042Z,5.90
2018-03-26T22:00:22.616Z,5.90
2018-03-26T22:05:25.181Z,5.90
2018-03-26T22:10:27.734Z,5.90
2018-03-26T22:15:30.290Z,5.80
2018-03-26T22:20:32.838Z,5.80
2018-03-26T22:25:35.394Z,5.80
2018-03-26T22:30:37.937Z,5.70
2018-03-26T22:35:40.497Z,5.70
2018-03-26T22:40:43.092Z,5.70
2018-03-26T22:45:45.654Z,5.70
2018-03-26T22:50:48.213Z,5.70
2018-03-26T22:55:50.762Z,5.70
2018-03-26T23:00:53.303Z,5.60
2018-03-26T23:05:55.849Z,5.60
2018-03-26T23:10:58.410Z,5.60
2018-03-26T23:16:00.970Z,5.60
2018-03-26T23:21:03.507Z,5.50
2018-03-26T23:26:06.186Z,5.50
2018-03-26T23:31:08.746Z,5.50
2018-03-26T23:36:11.319Z,5.50
2018-03-26T23:41:13.870Z,5.50
2018-03-26T23:46:16.464Z,5.40
2018-03-26T23:51:18.981Z,5.40
2018-03-26T23:56:21.538Z,5.40
